sensor_id;sensor_type;location;lat;lon;timestamp;temperature;humidity
48206;DHT22;33995;48.202;16.260;2022-08-19T00:02:14;20.30;99.90
48206;DHT22;33995;48.202;16.260;2022-08-19T00:04:41;20.30;99.90
48206;DHT22;33995;48.202;16.260;2022-08-19T00:07:11;20.30;99.90
48206;DHT22;33995;48.202;16.260;2022-08-19T00:09:42;20.30;99.90
48206;DHT22;33995;48.202;16.260;2022-08-19T00:12:11;20.40;99.90
48206;DHT22;33995;48.202;16.260;2022-08-19T00:14:38;20.40;99.90
48206;DHT22;33995;48.202;16.260;2022-08-19T00:17:07;20.30;99.90
48206;DHT22;33995;48.202;16.260;2022-08-19T00:19:36;20.20;99.90
48206;DHT22;33995;48.202;16.260;2022-08-19T00:22:04;20.20;99.90
48206;DHT22;33995;48.202;16.260;2022-08-19T00:24:32;20.30;99.90
48206;DHT22;33995;48.202;16.260;2022-08-19T00:27:00;20.40;99.90
48206;DHT22;33995;48.202;16.260;2022-08-19T00:29:48;20.20;99.90
48206;DHT22;33995;48.202;16.260;2022-08-19T00:32:19;20.10;99.90
48206;DHT22;33995;48.202;16.260;2022-08-19T00:34:46;20.20;99.90
48206;DHT22;33995;48.202;16.260;2022-08-19T00:37:14;20.20;99.90
48206;DHT22;33995;48.202;16.260;2022-08-19T00:39:41;20.10;99.90
48206;DHT22;33995;48.202;16.260;2022-08-19T00:42:09;20.10;99.90
48206;DHT22;33995;48.202;16.260;2022-08-19T00:44:36;20.10;99.90
48206;DHT22;33995;48.202;16.260;2022-08-19T00:47:04;20.00;99.90
48206;DHT22;33995;48.202;16.260;2022-08-19T00:49:45;20.10;99.90
48206;DHT22;33995;48.202;16.260;2022-08-19T00:52:30;20.10;99.90
48206;DHT22;33995;48.202;16.260;2022-08-19T00:55:00;20.10;99.90
48206;DHT22;33995;48.202;16.260;2022-08-19T00:57:36;20.10;99.90
48206;DHT22;33995;48.202;16.260;2022-08-19T01:00:10;20.20;99.90
48206;DHT22;33995;48.202;16.260;2022-08-19T01:02:40;20.20;99.90
48206;DHT22;33995;48.202;16.260;2022-08-19T01:05:14;20.20;99.90
48206;DHT22;33995;48.202;16.260;2022-08-19T01:07:45;20.10;99.90
48206;DHT22;33995;48.202;16.260;2022-08-19T01:10:16;20.10;99.90
48206;DHT22;33995;48.202;16.260;2022-08-19T01:12:47;20.10;99.90
48206;DHT22;33995;48.202;16.260;2022-08-19T01:15:19;20.10;99.90
48206;DHT22;33995;48.202;16.260;2022-08-19T01:17:48;20.20;99.90
48206;DHT22;33995;48.202;16.260;2022-08-19T01:20:22;20.20;99.90
48206;DHT22;33995;48.202;16.260;2022-08-19T01:22:53;20.10;99.90
48206;DHT22;33995;48.202;16.260;2022-08-19T01:25:27;20.10;99.90
48206;DHT22;33995;48.202;16.260;2022-08-19T01:27:56;20.10;99.90
48206;DHT22;33995;48.202;16.260;2022-08-19T01:30:37;20.10;99.90
48206;DHT22;33995;48.202;16.260;2022-08-19T01:33:05;20.00;99.90
48206;DHT22;33995;48.202;16.260;2022-08-19T01:35:36;19.90;99.90
48206;DHT22;33995;48.202;16.260;2022-08-19T01:38:06;19.90;99.90
48206;DHT22;33995;48.202;16.260;2022-08-19T01:40:38;19.90;99.90
48206;DHT22;33995;48.202;16.260;2022-08-19T01:43:06;19.80;99.90
48206;DHT22;33995;48.202;16.260;2022-08-19T01:45:35;19.80;99.90
48206;DHT22;33995;48.202;16.260;2022-08-19T01:48:04;19.90;99.90
48206;DHT22;33995;48.202;16.260;2022-08-19T01:50:33;19.90;99.90
48206;DHT22;33995;48.202;16.260;2022-08-19T01:53:04;19.90;99.90
48206;DHT22;33995;48.202;16.260;2022-08-19T01:55:37;19.90;99.90
48206;DHT22;33995;48.202;16.260;2022-08-19T01:58:21;19.90;99.90
48206;DHT22;33995;48.202;16.260;2022-08-19T02:00:51;19.90;99.90
48206;DHT22;33995;48.202;16.260;2022-08-19T02:03:18;19.90;99.90
48206;DHT22;33995;48.202;16.260;2022-08-19T02:05:46;19.90;99.90
48206;DHT22;33995;48.202;16.260;2022-08-19T02:08:13;19.80;99.90
48206;DHT22;33995;48.202;16.260;2022-08-19T02:10:43;19.80;99.90
48206;DHT22;33995;48.202;16.260;2022-08-19T02:13:12;19.80;99.90
48206;DHT22;33995;48.202;16.260;2022-08-19T02:15:49;19.80;99.90
48206;DHT22;33995;48.202;16.260;2022-08-19T02:18:16;19.80;99.90
48206;DHT22;33995;48.202;16.260;2022-08-19T02:20:45;20.00;99.90
48206;DHT22;33995;48.202;16.260;2022-08-19T02:23:15;20.00;99.90
48206;DHT22;33995;48.202;16.260;2022-08-19T02:25:46;20.00;99.90
48206;DHT22;33995;48.202;16.260;2022-08-19T02:28:14;20.00;99.90
48206;DHT22;33995;48.202;16.260;2022-08-19T02:30:46;19.90;99.90
48206;DHT22;33995;48.202;16.260;2022-08-19T02:33:14;20.00;99.90
48206;DHT22;33995;48.202;16.260;2022-08-19T02:35:44;20.00;99.90
48206;DHT22;33995;48.202;16.260;2022-08-19T02:38:14;20.10;99.90
48206;DHT22;33995;48.202;16.260;2022-08-19T02:40:59;20.10;99.90
48206;DHT22;33995;48.202;16.260;2022-08-19T02:43:28;20.10;99.90
48206;DHT22;33995;48.202;16.260;2022-08-19T02:46:00;20.10;99.90
48206;DHT22;33995;48.202;16.260;2022-08-19T02:48:27;20.10;99.90
48206;DHT22;33995;48.202;16.260;2022-08-19T02:50:55;20.10;99.90
48206;DHT22;33995;48.202;16.260;2022-08-19T02:53:24;20.20;99.90
48206;DHT22;33995;48.202;16.260;2022-08-19T02:55:53;20.30;99.90
48206;DHT22;33995;48.202;16.260;2022-08-19T02:58:21;20.30;99.90
48206;DHT22;33995;48.202;16.260;2022-08-19T03:00:54;20.30;99.90
48206;DHT22;33995;48.202;16.260;2022-08-19T03:03:22;20.40;99.90
48206;DHT22;33995;48.202;16.260;2022-08-19T03:05:49;20.50;99.90
48206;DHT22;33995;48.202;16.260;2022-08-19T03:08:24;20.60;99.90
48206;DHT22;33995;48.202;16.260;2022-08-19T03:10:55;20.50;99.90
48206;DHT22;33995;48.202;16.260;2022-08-19T03:13:23;20.50;99.90
48206;DHT22;33995;48.202;16.260;2022-08-19T03:15:51;20.60;99.90
48206;DHT22;33995;48.202;16.260;2022-08-19T03:18:19;20.50;99.90
48206;DHT22;33995;48.202;16.260;2022-08-19T03:20:51;20.60;99.90
48206;DHT22;33995;48.202;16.260;2022-08-19T03:23:22;20.70;99.90
48206;DHT22;33995;48.202;16.260;2022-08-19T03:25:52;20.70;99.90
48206;DHT22;33995;48.202;16.260;2022-08-19T03:28:41;20.70;99.90
48206;DHT22;33995;48.202;16.260;2022-08-19T03:31:21;20.70;99.90
48206;DHT22;33995;48.202;16.260;2022-08-19T03:34:33;20.80;99.90
48206;DHT22;33995;48.202;16.260;2022-08-19T03:37:05;20.80;99.90
48206;DHT22;33995;48.202;16.260;2022-08-19T03:39:33;20.70;99.90
48206;DHT22;33995;48.202;16.260;2022-08-19T03:42:01;20.70;99.90
48206;DHT22;33995;48.202;16.260;2022-08-19T03:44:49;20.70;99.90
48206;DHT22;33995;48.202;16.260;2022-08-19T03:47:17;20.70;99.90
48206;DHT22;33995;48.202;16.260;2022-08-19T03:49:45;20.70;99.90
48206;DHT22;33995;48.202;16.260;2022-08-19T03:52:12;20.70;99.90
48206;DHT22;33995;48.202;16.260;2022-08-19T03:54:41;20.80;99.90
48206;DHT22;33995;48.202;16.260;2022-08-19T03:57:09;20.80;99.90
48206;DHT22;33995;48.202;16.260;2022-08-19T03:59:38;20.80;99.90
48206;DHT22;33995;48.202;16.260;2022-08-19T04:02:10;20.80;99.90
48206;DHT22;33995;48.202;16.260;2022-08-19T04:04:40;20.90;99.90
48206;DHT22;33995;48.202;16.260;2022-08-19T04:07:13;20.90;99.90
48206;DHT22;33995;48.202;16.260;2022-08-19T04:09:43;20.80;99.90
48206;DHT22;33995;48.202;16.260;2022-08-19T04:12:11;20.80;99.90
48206;DHT22;33995;48.202;16.260;2022-08-19T04:14:38;20.90;99.90
48206;DHT22;33995;48.202;16.260;2022-08-19T04:17:06;20.90;99.90
48206;DHT22;33995;48.202;16.260;2022-08-19T04:19:35;20.90;99.90
48206;DHT22;33995;48.202;16.260;2022-08-19T04:22:03;20.90;99.90
48206;DHT22;33995;48.202;16.260;2022-08-19T04:24:31;21.00;99.90
48206;DHT22;33995;48.202;16.260;2022-08-19T04:27:00;21.00;99.90
48206;DHT22;33995;48.202;16.260;2022-08-19T04:29:28;21.00;99.90
48206;DHT22;33995;48.202;16.260;2022-08-19T04:31:57;21.00;99.90
48206;DHT22;33995;48.202;16.260;2022-08-19T04:34:27;21.00;99.90
48206;DHT22;33995;48.202;16.260;2022-08-19T04:36:57;21.00;99.90
48206;DHT22;33995;48.202;16.260;2022-08-19T04:39:30;21.00;99.90
48206;DHT22;33995;48.202;16.260;2022-08-19T04:42:17;21.10;99.90
48206;DHT22;33995;48.202;16.260;2022-08-19T04:45:06;21.10;99.90
48206;DHT22;33995;48.202;16.260;2022-08-19T04:47:41;21.10;99.90
48206;DHT22;33995;48.202;16.260;2022-08-19T04:50:14;21.20;99.90
48206;DHT22;33995;48.202;16.260;2022-08-19T04:52:45;21.20;99.90
48206;DHT22;33995;48.202;16.260;2022-08-19T04:55:13;21.20;99.90
48206;DHT22;33995;48.202;16.260;2022-08-19T04:57:40;21.30;99.90
48206;DHT22;33995;48.202;16.260;2022-08-19T05:00:09;21.30;99.90
48206;DHT22;33995;48.202;16.260;2022-08-19T05:02:37;21.30;99.90
48206;DHT22;33995;48.202;16.260;2022-08-19T05:05:05;21.30;99.90
48206;DHT22;33995;48.202;16.260;2022-08-19T05:07:34;21.30;99.90
48206;DHT22;33995;48.202;16.260;2022-08-19T05:10:03;21.30;99.90
48206;DHT22;33995;48.202;16.260;2022-08-19T05:12:32;21.40;99.90
48206;DHT22;33995;48.202;16.260;2022-08-19T05:15:05;21.30;99.90
48206;DHT22;33995;48.202;16.260;2022-08-19T05:17:35;21.40;99.90
48206;DHT22;33995;48.202;16.260;2022-08-19T05:20:07;21.40;99.90
48206;DHT22;33995;48.202;16.260;2022-08-19T05:22:53;21.40;99.90
48206;DHT22;33995;48.202;16.260;2022-08-19T05:25:21;21.40;99.90
48206;DHT22;33995;48.202;16.260;2022-08-19T05:27:49;21.50;99.90
48206;DHT22;33995;48.202;16.260;2022-08-19T05:30:17;21.50;99.90
48206;DHT22;33995;48.202;16.260;2022-08-19T05:33:00;21.60;99.90
48206;DHT22;33995;48.202;16.260;2022-08-19T05:35:27;21.60;99.90
48206;DHT22;33995;48.202;16.260;2022-08-19T05:38:01;21.70;99.90
48206;DHT22;33995;48.202;16.260;2022-08-19T05:40:28;21.70;99.90
48206;DHT22;33995;48.202;16.260;2022-08-19T05:42:56;21.70;99.90
48206;DHT22;33995;48.202;16.260;2022-08-19T05:45:23;21.80;99.90
48206;DHT22;33995;48.202;16.260;2022-08-19T05:47:52;21.90;99.90
48206;DHT22;33995;48.202;16.260;2022-08-19T05:50:20;22.00;99.90
48206;DHT22;33995;48.202;16.260;2022-08-19T05:52:47;22.10;99.90
48206;DHT22;33995;48.202;16.260;2022-08-19T05:55:16;22.20;99.90
48206;DHT22;33995;48.202;16.260;2022-08-19T05:57:44;22.20;99.90
48206;DHT22;33995;48.202;16.260;2022-08-19T06:00:12;22.30;99.90
48206;DHT22;33995;48.202;16.260;2022-08-19T06:02:40;22.30;99.90
48206;DHT22;33995;48.202;16.260;2022-08-19T06:05:11;22.30;99.90
48206;DHT22;33995;48.202;16.260;2022-08-19T06:07:39;22.30;99.90
48206;DHT22;33995;48.202;16.260;2022-08-19T06:10:09;22.30;99.90
48206;DHT22;33995;48.202;16.260;2022-08-19T06:12:37;22.30;99.90
48206;DHT22;33995;48.202;16.260;2022-08-19T06:15:08;22.30;99.90
48206;DHT22;33995;48.202;16.260;2022-08-19T06:17:38;22.30;99.90
48206;DHT22;33995;48.202;16.260;2022-08-19T06:20:08;22.40;99.90
48206;DHT22;33995;48.202;16.260;2022-08-19T06:22:42;22.40;99.90
48206;DHT22;33995;48.202;16.260;2022-08-19T06:25:11;22.40;99.90
48206;DHT22;33995;48.202;16.260;2022-08-19T06:27:40;22.50;99.90
48206;DHT22;33995;48.202;16.260;2022-08-19T06:30:27;22.50;99.90
48206;DHT22;33995;48.202;16.260;2022-08-19T06:32:55;22.60;99.90
48206;DHT22;33995;48.202;16.260;2022-08-19T06:35:23;22.70;99.90
48206;DHT22;33995;48.202;16.260;2022-08-19T06:37:50;22.70;99.90
48206;DHT22;33995;48.202;16.260;2022-08-19T06:40:19;22.70;99.90
48206;DHT22;33995;48.202;16.260;2022-08-19T06:42:47;22.70;99.90
48206;DHT22;33995;48.202;16.260;2022-08-19T06:45:22;22.80;99.90
48206;DHT22;33995;48.202;16.260;2022-08-19T06:48:02;22.80;99.90
48206;DHT22;33995;48.202;16.260;2022-08-19T06:50:29;22.90;99.90
48206;DHT22;33995;48.202;16.260;2022-08-19T06:52:57;22.90;99.90
48206;DHT22;33995;48.202;16.260;2022-08-19T06:55:30;22.90;99.90
48206;DHT22;33995;48.202;16.260;2022-08-19T06:58:02;23.00;99.90
48206;DHT22;33995;48.202;16.260;2022-08-19T07:00:32;23.10;99.90
48206;DHT22;33995;48.202;16.260;2022-08-19T07:03:00;23.20;99.90
48206;DHT22;33995;48.202;16.260;2022-08-19T07:05:39;23.40;99.90
48206;DHT22;33995;48.202;16.260;2022-08-19T07:08:12;23.50;99.90
48206;DHT22;33995;48.202;16.260;2022-08-19T07:10:44;23.60;99.90
48206;DHT22;33995;48.202;16.260;2022-08-19T07:13:12;23.70;99.90
48206;DHT22;33995;48.202;16.260;2022-08-19T07:15:40;23.80;99.90
48206;DHT22;33995;48.202;16.260;2022-08-19T07:18:08;23.90;99.90
48206;DHT22;33995;48.202;16.260;2022-08-19T07:20:39;24.00;99.90
48206;DHT22;33995;48.202;16.260;2022-08-19T07:23:09;24.00;99.90
48206;DHT22;33995;48.202;16.260;2022-08-19T07:25:43;24.00;99.90
48206;DHT22;33995;48.202;16.260;2022-08-19T07:28:10;24.00;99.90
48206;DHT22;33995;48.202;16.260;2022-08-19T07:30:51;24.00;99.90
48206;DHT22;33995;48.202;16.260;2022-08-19T07:33:19;23.90;99.90
48206;DHT22;33995;48.202;16.260;2022-08-19T07:35:46;24.00;99.90
48206;DHT22;33995;48.202;16.260;2022-08-19T07:38:15;24.00;99.90
48206;DHT22;33995;48.202;16.260;2022-08-19T07:40:44;24.10;99.90
48206;DHT22;33995;48.202;16.260;2022-08-19T07:43:14;24.20;99.90
48206;DHT22;33995;48.202;16.260;2022-08-19T07:45:44;24.40;99.90
48206;DHT22;33995;48.202;16.260;2022-08-19T07:48:12;24.50;99.90
48206;DHT22;33995;48.202;16.260;2022-08-19T07:50:40;24.40;99.90
48206;DHT22;33995;48.202;16.260;2022-08-19T07:53:07;24.50;99.90
48206;DHT22;33995;48.202;16.260;2022-08-19T07:55:35;24.60;99.90
48206;DHT22;33995;48.202;16.260;2022-08-19T07:58:10;24.80;99.90
48206;DHT22;33995;48.202;16.260;2022-08-19T08:00:41;25.00;99.90
48206;DHT22;33995;48.202;16.260;2022-08-19T08:03:09;25.10;99.90
48206;DHT22;33995;48.202;16.260;2022-08-19T08:05:36;25.20;99.90
48206;DHT22;33995;48.202;16.260;2022-08-19T08:08:23;25.50;99.90
48206;DHT22;33995;48.202;16.260;2022-08-19T08:11:18;25.60;99.90
48206;DHT22;33995;48.202;16.260;2022-08-19T08:13:47;25.70;99.90
48206;DHT22;33995;48.202;16.260;2022-08-19T08:16:34;25.70;99.90
48206;DHT22;33995;48.202;16.260;2022-08-19T08:19:06;25.80;99.90
48206;DHT22;33995;48.202;16.260;2022-08-19T08:21:53;25.90;99.90
48206;DHT22;33995;48.202;16.260;2022-08-19T08:24:21;26.00;99.90
48206;DHT22;33995;48.202;16.260;2022-08-19T08:26:55;26.10;99.90
48206;DHT22;33995;48.202;16.260;2022-08-19T08:29:27;26.30;99.90
48206;DHT22;33995;48.202;16.260;2022-08-19T08:32:01;26.30;99.90
48206;DHT22;33995;48.202;16.260;2022-08-19T08:34:40;26.60;99.90
48206;DHT22;33995;48.202;16.260;2022-08-19T08:37:08;26.80;99.90
48206;DHT22;33995;48.202;16.260;2022-08-19T08:39:35;26.90;99.90
48206;DHT22;33995;48.202;16.260;2022-08-19T08:42:17;26.90;99.90
48206;DHT22;33995;48.202;16.260;2022-08-19T08:44:53;26.90;99.90
48206;DHT22;33995;48.202;16.260;2022-08-19T08:47:32;27.00;99.90
48206;DHT22;33995;48.202;16.260;2022-08-19T08:50:06;26.90;99.90
48206;DHT22;33995;48.202;16.260;2022-08-19T08:52:39;26.90;99.90
48206;DHT22;33995;48.202;16.260;2022-08-19T08:55:17;26.80;99.90
48206;DHT22;33995;48.202;16.260;2022-08-19T09:00:28;26.80;99.90
48206;DHT22;33995;48.202;16.260;2022-08-19T09:02:57;26.90;99.90
48206;DHT22;33995;48.202;16.260;2022-08-19T09:05:34;26.90;99.90
48206;DHT22;33995;48.202;16.260;2022-08-19T09:11:04;27.10;99.90
48206;DHT22;33995;48.202;16.260;2022-08-19T09:16:20;27.20;99.90
48206;DHT22;33995;48.202;16.260;2022-08-19T09:19:05;27.40;99.90
48206;DHT22;33995;48.202;16.260;2022-08-19T09:21:34;27.60;99.90
48206;DHT22;33995;48.202;16.260;2022-08-19T09:24:03;27.80;99.90
48206;DHT22;33995;48.202;16.260;2022-08-19T09:26:32;27.90;99.90
48206;DHT22;33995;48.202;16.260;2022-08-19T09:29:19;27.90;99.90
48206;DHT22;33995;48.202;16.260;2022-08-19T09:31:48;28.10;99.90
48206;DHT22;33995;48.202;16.260;2022-08-19T09:34:17;28.00;99.90
48206;DHT22;33995;48.202;16.260;2022-08-19T09:36:49;27.70;99.90
48206;DHT22;33995;48.202;16.260;2022-08-19T09:39:22;27.90;99.90
48206;DHT22;33995;48.202;16.260;2022-08-19T09:41:49;28.00;99.90
48206;DHT22;33995;48.202;16.260;2022-08-19T09:44:18;28.30;99.90
48206;DHT22;33995;48.202;16.260;2022-08-19T09:46:48;28.50;99.90
48206;DHT22;33995;48.202;16.260;2022-08-19T09:49:19;28.60;99.90
48206;DHT22;33995;48.202;16.260;2022-08-19T09:51:53;28.60;99.90
48206;DHT22;33995;48.202;16.260;2022-08-19T09:54:23;28.70;99.90
48206;DHT22;33995;48.202;16.260;2022-08-19T09:56:55;28.60;99.90
48206;DHT22;33995;48.202;16.260;2022-08-19T09:59:23;29.00;99.90
48206;DHT22;33995;48.202;16.260;2022-08-19T10:01:51;29.00;99.90
48206;DHT22;33995;48.202;16.260;2022-08-19T10:04:19;28.70;99.90
48206;DHT22;33995;48.202;16.260;2022-08-19T10:06:49;28.50;99.90
48206;DHT22;33995;48.202;16.260;2022-08-19T10:09:21;28.40;99.90
48206;DHT22;33995;48.202;16.260;2022-08-19T10:12:00;28.10;99.90
48206;DHT22;33995;48.202;16.260;2022-08-19T10:14:29;28.10;99.90
48206;DHT22;33995;48.202;16.260;2022-08-19T10:16:57;28.10;99.90
48206;DHT22;33995;48.202;16.260;2022-08-19T10:19:25;28.20;99.90
48206;DHT22;33995;48.202;16.260;2022-08-19T10:21:53;28.10;99.90
48206;DHT22;33995;48.202;16.260;2022-08-19T10:24:26;27.80;99.90
48206;DHT22;33995;48.202;16.260;2022-08-19T10:26:56;27.70;99.90
48206;DHT22;33995;48.202;16.260;2022-08-19T10:29:27;27.80;99.90
48206;DHT22;33995;48.202;16.260;2022-08-19T10:32:04;27.80;99.90
48206;DHT22;33995;48.202;16.260;2022-08-19T10:34:38;27.70;99.90
48206;DHT22;33995;48.202;16.260;2022-08-19T10:37:16;27.60;99.90
48206;DHT22;33995;48.202;16.260;2022-08-19T10:39:55;27.50;99.90
48206;DHT22;33995;48.202;16.260;2022-08-19T10:42:22;27.40;99.90
48206;DHT22;33995;48.202;16.260;2022-08-19T10:44:51;27.30;99.90
48206;DHT22;33995;48.202;16.260;2022-08-19T10:47:20;27.30;99.90
48206;DHT22;33995;48.202;16.260;2022-08-19T10:49:53;27.20;99.90
48206;DHT22;33995;48.202;16.260;2022-08-19T10:52:47;27.00;99.90
48206;DHT22;33995;48.202;16.260;2022-08-19T10:55:22;27.00;99.90
48206;DHT22;33995;48.202;16.260;2022-08-19T10:58:18;27.00;99.90
48206;DHT22;33995;48.202;16.260;2022-08-19T11:00:55;27.00;99.90
48206;DHT22;33995;48.202;16.260;2022-08-19T11:03:23;26.80;99.90
48206;DHT22;33995;48.202;16.260;2022-08-19T11:06:18;26.70;99.90
48206;DHT22;33995;48.202;16.260;2022-08-19T11:08:47;26.60;99.90
48206;DHT22;33995;48.202;16.260;2022-08-19T11:11:14;26.60;99.90
48206;DHT22;33995;48.202;16.260;2022-08-19T11:13:43;26.60;99.90
48206;DHT22;33995;48.202;16.260;2022-08-19T11:16:15;26.60;99.90
48206;DHT22;33995;48.202;16.260;2022-08-19T11:18:46;26.50;99.90
48206;DHT22;33995;48.202;16.260;2022-08-19T11:21:16;26.40;99.90
48206;DHT22;33995;48.202;16.260;2022-08-19T11:23:47;26.40;99.90
48206;DHT22;33995;48.202;16.260;2022-08-19T11:26:21;26.40;99.90
48206;DHT22;33995;48.202;16.260;2022-08-19T11:28:49;26.50;99.90
48206;DHT22;33995;48.202;16.260;2022-08-19T11:31:27;26.40;99.90
48206;DHT22;33995;48.202;16.260;2022-08-19T11:34:00;26.40;99.90
48206;DHT22;33995;48.202;16.260;2022-08-19T11:36:29;26.40;99.90
48206;DHT22;33995;48.202;16.260;2022-08-19T11:38:56;26.40;99.90
48206;DHT22;33995;48.202;16.260;2022-08-19T11:41:25;26.60;99.90
48206;DHT22;33995;48.202;16.260;2022-08-19T11:43:55;26.70;99.90
48206;DHT22;33995;48.202;16.260;2022-08-19T11:46:26;26.70;99.90
48206;DHT22;33995;48.202;16.260;2022-08-19T11:48:57;26.50;99.90
48206;DHT22;33995;48.202;16.260;2022-08-19T11:51:27;26.60;99.90
48206;DHT22;33995;48.202;16.260;2022-08-19T11:53:56;26.60;99.90
48206;DHT22;33995;48.202;16.260;2022-08-19T11:56:25;27.00;99.90
48206;DHT22;33995;48.202;16.260;2022-08-19T11:58:53;27.50;99.90
48206;DHT22;33995;48.202;16.260;2022-08-19T12:01:23;27.70;99.90
48206;DHT22;33995;48.202;16.260;2022-08-19T12:03:52;27.70;99.90
48206;DHT22;33995;48.202;16.260;2022-08-19T12:06:24;27.50;99.90
48206;DHT22;33995;48.202;16.260;2022-08-19T12:08:56;27.30;99.90
48206;DHT22;33995;48.202;16.260;2022-08-19T12:11:25;27.30;99.90
48206;DHT22;33995;48.202;16.260;2022-08-19T12:13:53;27.30;99.90
48206;DHT22;33995;48.202;16.260;2022-08-19T12:16:26;27.30;99.90
48206;DHT22;33995;48.202;16.260;2022-08-19T12:18:55;27.30;99.90
48206;DHT22;33995;48.202;16.260;2022-08-19T12:21:25;27.40;99.90
48206;DHT22;33995;48.202;16.260;2022-08-19T12:23:56;27.60;99.90
48206;DHT22;33995;48.202;16.260;2022-08-19T12:26:25;27.50;99.80
48206;DHT22;33995;48.202;16.260;2022-08-19T12:28:56;27.70;99.70
48206;DHT22;33995;48.202;16.260;2022-08-19T12:31:27;27.70;99.60
48206;DHT22;33995;48.202;16.260;2022-08-19T12:33:55;27.70;99.40
48206;DHT22;33995;48.202;16.260;2022-08-19T12:36:24;27.50;99.60
48206;DHT22;33995;48.202;16.260;2022-08-19T12:38:52;27.60;99.50
48206;DHT22;33995;48.202;16.260;2022-08-19T12:41:20;27.50;99.70
48206;DHT22;33995;48.202;16.260;2022-08-19T12:43:49;27.50;99.90
48206;DHT22;33995;48.202;16.260;2022-08-19T12:46:19;27.30;99.90
48206;DHT22;33995;48.202;16.260;2022-08-19T12:48:49;27.30;99.90
48206;DHT22;33995;48.202;16.260;2022-08-19T12:51:21;27.10;99.90
48206;DHT22;33995;48.202;16.260;2022-08-19T12:53:49;27.00;99.90
48206;DHT22;33995;48.202;16.260;2022-08-19T12:56:17;27.00;99.90
48206;DHT22;33995;48.202;16.260;2022-08-19T12:58:50;27.00;99.90
48206;DHT22;33995;48.202;16.260;2022-08-19T13:01:20;26.90;99.90
48206;DHT22;33995;48.202;16.260;2022-08-19T13:03:50;26.70;99.90
48206;DHT22;33995;48.202;16.260;2022-08-19T13:06:19;26.50;99.90
48206;DHT22;33995;48.202;16.260;2022-08-19T13:08:47;26.40;99.90
48206;DHT22;33995;48.202;16.260;2022-08-19T13:11:19;26.40;99.90
48206;DHT22;33995;48.202;16.260;2022-08-19T13:13:49;26.40;99.90
48206;DHT22;33995;48.202;16.260;2022-08-19T13:16:20;26.20;99.90
48206;DHT22;33995;48.202;16.260;2022-08-19T13:18:48;26.20;99.90
48206;DHT22;33995;48.202;16.260;2022-08-19T13:21:18;26.10;99.90
48206;DHT22;33995;48.202;16.260;2022-08-19T13:23:49;26.20;99.90
48206;DHT22;33995;48.202;16.260;2022-08-19T13:26:18;26.10;99.90
48206;DHT22;33995;48.202;16.260;2022-08-19T13:28:45;26.10;99.90
48206;DHT22;33995;48.202;16.260;2022-08-19T13:31:34;26.10;99.90
48206;DHT22;33995;48.202;16.260;2022-08-19T13:34:30;26.10;99.90
48206;DHT22;33995;48.202;16.260;2022-08-19T13:36:59;26.20;99.90
48206;DHT22;33995;48.202;16.260;2022-08-19T13:39:32;26.20;99.90
48206;DHT22;33995;48.202;16.260;2022-08-19T13:42:00;26.10;99.90
48206;DHT22;33995;48.202;16.260;2022-08-19T13:44:28;26.20;99.90
48206;DHT22;33995;48.202;16.260;2022-08-19T13:47:02;26.10;99.90
48206;DHT22;33995;48.202;16.260;2022-08-19T13:49:35;26.10;99.90
48206;DHT22;33995;48.202;16.260;2022-08-19T13:52:04;26.20;99.90
48206;DHT22;33995;48.202;16.260;2022-08-19T13:54:32;26.20;99.90
48206;DHT22;33995;48.202;16.260;2022-08-19T13:57:00;26.20;99.90
48206;DHT22;33995;48.202;16.260;2022-08-19T13:59:27;26.30;99.90
48206;DHT22;33995;48.202;16.260;2022-08-19T14:01:58;26.30;99.90
48206;DHT22;33995;48.202;16.260;2022-08-19T14:04:26;26.40;99.90
48206;DHT22;33995;48.202;16.260;2022-08-19T14:06:53;26.30;99.90
48206;DHT22;33995;48.202;16.260;2022-08-19T14:09:21;26.30;99.90
48206;DHT22;33995;48.202;16.260;2022-08-19T14:11:48;26.40;99.90
48206;DHT22;33995;48.202;16.260;2022-08-19T14:14:17;26.40;99.90
48206;DHT22;33995;48.202;16.260;2022-08-19T14:16:45;26.50;99.90
48206;DHT22;33995;48.202;16.260;2022-08-19T14:19:12;26.50;99.90
48206;DHT22;33995;48.202;16.260;2022-08-19T14:21:40;26.60;99.90
48206;DHT22;33995;48.202;16.260;2022-08-19T14:24:08;26.80;99.90
48206;DHT22;33995;48.202;16.260;2022-08-19T14:26:36;26.80;99.90
48206;DHT22;33995;48.202;16.260;2022-08-19T14:29:03;26.80;99.90
48206;DHT22;33995;48.202;16.260;2022-08-19T14:31:31;26.90;99.90
48206;DHT22;33995;48.202;16.260;2022-08-19T14:33:58;26.90;99.90
48206;DHT22;33995;48.202;16.260;2022-08-19T14:36:26;27.10;99.90
48206;DHT22;33995;48.202;16.260;2022-08-19T14:38:53;27.10;99.90
48206;DHT22;33995;48.202;16.260;2022-08-19T14:41:22;27.20;99.90
48206;DHT22;33995;48.202;16.260;2022-08-19T14:43:51;27.10;99.90
48206;DHT22;33995;48.202;16.260;2022-08-19T14:46:21;27.00;99.90
48206;DHT22;33995;48.202;16.260;2022-08-19T14:48:52;27.20;99.20
48206;DHT22;33995;48.202;16.260;2022-08-19T14:51:22;27.20;99.30
48206;DHT22;33995;48.202;16.260;2022-08-19T14:53:50;27.20;99.50
48206;DHT22;33995;48.202;16.260;2022-08-19T14:56:22;27.30;98.80
48206;DHT22;33995;48.202;16.260;2022-08-19T14:58:50;27.30;98.30
48206;DHT22;33995;48.202;16.260;2022-08-19T15:01:20;27.10;97.90
48206;DHT22;33995;48.202;16.260;2022-08-19T15:03:49;27.00;97.70
48206;DHT22;33995;48.202;16.260;2022-08-19T15:06:17;26.90;98.30
48206;DHT22;33995;48.202;16.260;2022-08-19T15:08:45;27.00;98.10
48206;DHT22;33995;48.202;16.260;2022-08-19T15:11:15;26.90;98.00
48206;DHT22;33995;48.202;16.260;2022-08-19T15:13:43;26.90;98.10
48206;DHT22;33995;48.202;16.260;2022-08-19T15:16:11;26.90;97.30
48206;DHT22;33995;48.202;16.260;2022-08-19T15:18:45;27.00;98.00
48206;DHT22;33995;48.202;16.260;2022-08-19T15:21:14;27.00;97.20
48206;DHT22;33995;48.202;16.260;2022-08-19T15:23:55;26.90;97.70
48206;DHT22;33995;48.202;16.260;2022-08-19T15:26:23;26.90;97.10
48206;DHT22;33995;48.202;16.260;2022-08-19T15:28:53;26.90;97.50
48206;DHT22;33995;48.202;16.260;2022-08-19T15:31:21;26.80;97.40
48206;DHT22;33995;48.202;16.260;2022-08-19T15:33:58;26.80;97.50
48206;DHT22;33995;48.202;16.260;2022-08-19T15:36:26;26.70;97.60
48206;DHT22;33995;48.202;16.260;2022-08-19T15:38:57;26.60;97.90
48206;DHT22;33995;48.202;16.260;2022-08-19T15:41:27;26.60;97.90
48206;DHT22;33995;48.202;16.260;2022-08-19T15:44:17;26.40;98.50
48206;DHT22;33995;48.202;16.260;2022-08-19T15:46:46;26.40;98.10
48206;DHT22;33995;48.202;16.260;2022-08-19T15:49:16;26.50;98.30